Time;durP1;ratioP1;P1;durP2;ratioP2;P2;SDS_P1;SDS_P2;PMS_P1;PMS_P2;Temp;Humidity;BMP_temperature;BMP_pressure;BME280_temperature;BME280_humidity;BME280_pressure;Samples;Min_cycle;Max_cycle;Signal;HPM_P1;HPM_P2
2022/02/13 00:00:45;;;;;;;4.97;2.53;;;;;;;;;;5036329;28;20044;-76
2022/02/13 00:03:10;;;;;;;3.88;1.95;;;;;;;;;;5019437;28;20047;-76
2022/02/13 00:05:36;;;;;;;3.38;1.88;;;;;;;;;;5020075;28;20450;-75
2022/02/13 00:08:01;;;;;;;4.20;2.17;;;;;;;;;;5003961;28;20373;-75
2022/02/13 00:10:27;;;;;;;4.20;2.17;;;;;;;;;;5026228;28;20059;-75
2022/02/13 00:12:52;;;;;;;4.35;2.20;;;;;;;;;;5033044;28;20415;-75
2022/02/13 00:15:17;;;;;;;6.05;2.78;;;;;;;;;;4999996;28;20091;-75
2022/02/13 00:17:43;;;;;;;3.83;1.88;;;;;;;;;;5016786;28;20049;-75
2022/02/13 00:20:09;;;;;;;4.68;2.30;;;;;;;;;;5016610;28;20108;-75
2022/02/13 00:22:34;;;;;;;3.10;1.77;;;;;;;;;;5016575;28;20069;-75
2022/02/13 00:25:00;;;;;;;4.97;1.83;;;;;;;;;;5032901;28;20033;-76
2022/02/13 00:27:25;;;;;;;3.65;2.13;;;;;;;;;;5033012;28;20108;-75
2022/02/13 00:29:51;;;;;;;4.80;2.40;;;;;;;;;;5032553;28;20041;-75
2022/02/13 00:32:16;;;;;;;3.95;1.98;;;;;;;;;;5032999;28;20476;-75
2022/02/13 00:34:44;;;;;;;3.00;1.80;;;;;;;;;;5032612;28;20084;-75
2022/02/13 00:37:09;;;;;;;3.72;1.90;;;;;;;;;;5032289;28;20072;-75
2022/02/13 00:39:35;;;;;;;3.67;2.17;;;;;;;;;;5033059;28;20511;-75
2022/02/13 00:42:00;;;;;;;3.33;1.67;;;;;;;;;;5028865;28;20089;-75
2022/02/13 00:44:26;;;;;;;4.00;2.05;;;;;;;;;;5015954;28;20388;-75
2022/02/13 00:46:52;;;;;;;3.70;2.00;;;;;;;;;;5019870;28;20111;-75
2022/02/13 00:49:17;;;;;;;3.97;1.77;;;;;;;;;;5001268;28;20128;-75
2022/02/13 00:51:43;;;;;;;4.15;1.80;;;;;;;;;;5019163;28;20495;-75
2022/02/13 00:54:08;;;;;;;3.20;1.80;;;;;;;;;;5019585;28;20415;-76
2022/02/13 00:56:34;;;;;;;4.13;1.80;;;;;;;;;;5019296;28;20045;-76
2022/02/13 00:58:59;;;;;;;3.38;1.67;;;;;;;;;;5002703;28;20036;-75
2022/02/13 01:01:25;;;;;;;2.97;1.50;;;;;;;;;;5003255;28;20037;-75
2022/02/13 01:03:50;;;;;;;4.40;2.28;;;;;;;;;;4971338;28;20033;-75
2022/02/13 01:06:16;;;;;;;4.10;1.67;;;;;;;;;;4982636;28;20124;-75
2022/02/13 01:08:41;;;;;;;3.88;1.63;;;;;;;;;;5015799;28;20034;-76
2022/02/13 01:11:07;;;;;;;3.15;2.03;;;;;;;;;;4998205;28;20041;-75
2022/02/13 01:13:33;;;;;;;3.65;1.40;;;;;;;;;;4999609;28;20053;-75
2022/02/13 01:15:58;;;;;;;2.95;1.75;;;;;;;;;;5015598;28;20041;-75
2022/02/13 01:18:24;;;;;;;4.13;1.75;;;;;;;;;;5010023;28;20507;-75
2022/02/13 01:20:50;;;;;;;5.53;2.13;;;;;;;;;;5015506;28;20063;-75
2022/02/13 01:23:15;;;;;;;4.47;1.92;;;;;;;;;;5015610;28;20046;-75
2022/02/13 01:25:40;;;;;;;2.92;1.63;;;;;;;;;;5015456;28;20484;-75
2022/02/13 01:28:06;;;;;;;3.95;1.60;;;;;;;;;;5002268;28;20029;-75
2022/02/13 01:30:32;;;;;;;3.58;2.00;;;;;;;;;;5000543;28;20033;-75
2022/02/13 01:33:01;;;;;;;2.60;1.20;;;;;;;;;;5035108;28;20037;-75
2022/02/13 01:35:26;;;;;;;2.83;1.70;;;;;;;;;;5018460;28;20487;-75
2022/02/13 01:37:52;;;;;;;3.08;1.63;;;;;;;;;;5018336;28;20036;-75
2022/02/13 01:40:17;;;;;;;3.45;1.33;;;;;;;;;;5018357;28;20037;-75
2022/02/13 01:42:43;;;;;;;3.58;1.60;;;;;;;;;;5005484;28;20119;-76
2022/02/13 01:45:09;;;;;;;3.97;1.33;;;;;;;;;;4984952;28;20053;-76
2022/02/13 01:47:35;;;;;;;3.95;1.58;;;;;;;;;;5034751;28;20043;-75
2022/02/13 01:50:01;;;;;;;3.50;1.40;;;;;;;;;;5002034;28;20044;-75
2022/02/13 01:52:27;;;;;;;2.53;1.40;;;;;;;;;;5018381;28;20033;-75
2022/02/13 01:54:52;;;;;;;3.35;1.58;;;;;;;;;;5018684;28;20044;-75
2022/02/13 01:57:18;;;;;;;3.30;1.77;;;;;;;;;;5034585;28;20495;-75
2022/02/13 01:59:43;;;;;;;4.90;1.40;;;;;;;;;;4997572;28;20060;-75
2022/02/13 02:02:09;;;;;;;5.70;1.95;;;;;;;;;;5014921;28;20041;-75
2022/02/13 02:04:34;;;;;;;3.75;1.55;;;;;;;;;;4998147;28;20045;-75
2022/02/13 02:07:01;;;;;;;2.92;1.65;;;;;;;;;;4998966;28;20037;-75
2022/02/13 02:09:26;;;;;;;2.95;1.40;;;;;;;;;;4998542;28;20083;-75
2022/02/13 02:11:52;;;;;;;4.38;1.75;;;;;;;;;;5030787;28;20455;-75
2022/02/13 02:14:17;;;;;;;3.90;1.38;;;;;;;;;;5014791;28;20132;-75
2022/02/13 02:16:43;;;;;;;4.15;1.85;;;;;;;;;;4998264;28;20057;-75
2022/02/13 02:19:09;;;;;;;3.60;1.38;;;;;;;;;;4998133;28;20503;-75
2022/02/13 02:21:35;;;;;;;2.20;1.35;;;;;;;;;;5015633;28;20033;-75
2022/02/13 02:24:01;;;;;;;3.58;1.50;;;;;;;;;;4998105;28;20034;-75
2022/02/13 02:26:26;;;;;;;2.72;1.42;;;;;;;;;;5031208;28;20491;-75
2022/02/13 02:28:52;;;;;;;3.15;1.40;;;;;;;;;;5000900;28;20454;-75
2022/02/13 02:31:17;;;;;;;3.80;1.70;;;;;;;;;;5033954;28;20112;-75
2022/02/13 02:33:43;;;;;;;4.05;1.63;;;;;;;;;;5001407;28;20594;-75
2022/02/13 02:36:18;;;;;;;2.20;1.17;;;;;;;;;;5001059;28;20041;-75
2022/02/13 02:38:44;;;;;;;2.92;1.20;;;;;;;;;;5017716;28;20033;-75
2022/02/13 02:41:10;;;;;;;3.42;1.52;;;;;;;;;;5016829;28;20056;-75
2022/02/13 02:43:35;;;;;;;2.72;1.60;;;;;;;;;;5001010;28;20056;-75
2022/02/13 02:46:00;;;;;;;3.10;1.30;;;;;;;;;;5017383;28;20033;-75
2022/02/13 02:48:26;;;;;;;3.25;1.50;;;;;;;;;;5000670;28;20037;-75
2022/02/13 02:50:51;;;;;;;2.63;1.38;;;;;;;;;;5016372;28;20078;-75
2022/02/13 02:53:17;;;;;;;2.40;1.23;;;;;;;;;;4994669;28;20403;-75
2022/02/13 02:55:43;;;;;;;2.70;1.30;;;;;;;;;;5030356;28;20048;-75
2022/02/13 02:58:08;;;;;;;2.78;1.35;;;;;;;;;;5017210;28;20104;-75
2022/02/13 03:00:34;;;;;;;2.72;1.35;;;;;;;;;;5001261;28;20060;-75
2022/02/13 03:02:59;;;;;;;2.22;1.15;;;;;;;;;;5017294;28;20040;-75
2022/02/13 03:05:25;;;;;;;3.65;1.25;;;;;;;;;;5017000;28;20065;-75
2022/02/13 03:07:50;;;;;;;2.65;1.30;;;;;;;;;;5016107;28;20515;-75
2022/02/13 03:10:16;;;;;;;2.80;1.65;;;;;;;;;;5017240;28;20411;-75
2022/02/13 03:12:41;;;;;;;2.70;1.10;;;;;;;;;;5016636;28;20068;-75
2022/02/13 03:15:07;;;;;;;2.85;1.30;;;;;;;;;;5017340;28;20045;-75
2022/02/13 03:17:33;;;;;;;2.55;1.20;;;;;;;;;;5000836;28;20037;-75
2022/02/13 03:19:58;;;;;;;3.08;1.40;;;;;;;;;;5033460;28;20037;-75
2022/02/13 03:22:24;;;;;;;3.30;1.75;;;;;;;;;;4997255;28;20577;-75
2022/02/13 03:24:49;;;;;;;2.90;1.40;;;;;;;;;;4997395;28;20128;-75
2022/02/13 03:27:15;;;;;;;3.03;1.42;;;;;;;;;;5001308;28;20049;-75
2022/02/13 03:29:40;;;;;;;2.50;1.10;;;;;;;;;;5012420;28;20060;-75
2022/02/13 03:32:06;;;;;;;2.95;1.27;;;;;;;;;;5029711;28;20042;-75
2022/02/13 03:34:31;;;;;;;3.28;1.42;;;;;;;;;;4999368;28;20550;-75
2022/02/13 03:36:57;;;;;;;2.63;1.55;;;;;;;;;;5033931;28;20172;-75
2022/02/13 03:39:22;;;;;;;5.95;1.48;;;;;;;;;;5034293;28;20424;-75
2022/02/13 03:41:48;;;;;;;3.47;1.23;;;;;;;;;;5015322;28;20033;-75
2022/02/13 03:44:13;;;;;;;2.88;1.20;;;;;;;;;;5000848;28;20149;-75
2022/02/13 03:46:39;;;;;;;2.97;1.20;;;;;;;;;;5017106;28;20049;-75
2022/02/13 03:49:07;;;;;;;2.70;1.23;;;;;;;;;;5000262;28;20547;-75
2022/02/13 03:51:32;;;;;;;2.22;1.05;;;;;;;;;;5001360;28;20043;-75
2022/02/13 03:53:58;;;;;;;1.98;1.20;;;;;;;;;;5033888;28;20116;-75
2022/02/13 03:56:23;;;;;;;3.20;1.20;;;;;;;;;;5017024;28;20904;-75
2022/02/13 03:58:49;;;;;;;2.10;1.00;;;;;;;;;;5042792;28;20414;-75
2022/02/13 04:01:14;;;;;;;2.80;1.10;;;;;;;;;;5053279;28;20065;-75
2022/02/13 04:03:40;;;;;;;3.05;1.58;;;;;;;;;;5036700;28;20043;-75
2022/02/13 04:06:05;;;;;;;3.17;1.60;;;;;;;;;;5020083;28;20048;-75
2022/02/13 04:08:31;;;;;;;2.78;1.30;;;;;;;;;;5036441;28;20434;-75
2022/02/13 04:10:58;;;;;;;2.97;1.77;;;;;;;;;;5020015;28;20397;-75
2022/02/13 04:13:24;;;;;;;2.60;1.27;;;;;;;;;;5020240;28;20044;-75
2022/02/13 04:15:50;;;;;;;3.63;1.60;;;;;;;;;;5018407;28;20037;-75
2022/02/13 04:18:16;;;;;;;2.53;1.00;;;;;;;;;;5019814;28;20036;-75
2022/02/13 04:20:42;;;;;;;2.97;1.00;;;;;;;;;;5020548;28;20112;-75
2022/02/13 04:23:07;;;;;;;2.80;1.15;;;;;;;;;;5020144;28;20514;-75
2022/02/13 04:25:32;;;;;;;2.45;1.17;;;;;;;;;;5019699;28;20379;-75
2022/02/13 04:27:58;;;;;;;3.42;1.10;;;;;;;;;;5036027;28;20163;-75
2022/02/13 04:30:23;;;;;;;2.13;1.17;;;;;;;;;;4990887;28;20056;-75
2022/02/13 04:32:49;;;;;;;2.42;1.00;;;;;;;;;;5016454;28;20089;-75
2022/02/13 04:35:15;;;;;;;2.50;1.10;;;;;;;;;;4984057;28;20041;-75
2022/02/13 04:37:40;;;;;;;2.03;0.73;;;;;;;;;;4999902;28;20128;-75
2022/02/13 04:40:06;;;;;;;2.17;1.00;;;;;;;;;;5017318;28;20040;-75
2022/02/13 04:42:32;;;;;;;2.95;1.40;;;;;;;;;;5024502;28;20117;-75
2022/02/13 04:44:57;;;;;;;2.53;1.00;;;;;;;;;;4999550;28;20120;-75
2022/02/13 04:47:23;;;;;;;2.03;1.00;;;;;;;;;;5000002;28;20462;-75
2022/02/13 04:49:48;;;;;;;2.67;1.40;;;;;;;;;;4999799;28;20530;-75
2022/02/13 04:52:14;;;;;;;1.85;0.95;;;;;;;;;;4998088;28;20045;-75
2022/02/13 04:54:39;;;;;;;3.10;1.70;;;;;;;;;;4999992;28;20069;-75
2022/02/13 04:57:06;;;;;;;3.25;1.25;;;;;;;;;;4999686;28;20116;-75
2022/02/13 04:59:37;;;;;;;2.80;1.30;;;;;;;;;;5014446;28;20059;-75
2022/02/13 05:02:02;;;;;;;2.53;1.08;;;;;;;;;;5036408;28;20564;-75
2022/02/13 05:04:28;;;;;;;2.35;1.42;;;;;;;;;;5001701;28;20035;-75
2022/02/13 05:06:53;;;;;;;1.85;0.82;;;;;;;;;;5017663;28;20265;-75
2022/02/13 05:09:19;;;;;;;2.53;1.20;;;;;;;;;;5019121;28;20487;-75
2022/02/13 05:11:44;;;;;;;2.03;1.08;;;;;;;;;;5002535;28;20049;-75
2022/02/13 05:14:09;;;;;;;1.90;0.90;;;;;;;;;;5018531;28;20392;-75
2022/02/13 05:16:35;;;;;;;2.50;1.20;;;;;;;;;;5016313;28;20045;-75
2022/02/13 05:19:00;;;;;;;1.92;1.00;;;;;;;;;;5015791;28;20431;-75
2022/02/13 05:21:26;;;;;;;3.05;1.85;;;;;;;;;;5032219;28;20131;-75
2022/02/13 05:23:51;;;;;;;2.97;1.15;;;;;;;;;;5032342;28;20408;-75
2022/02/13 05:26:17;;;;;;;3.17;1.33;;;;;;;;;;5031687;28;20037;-75
2022/02/13 05:28:43;;;;;;;1.63;0.88;;;;;;;;;;5046500;28;20415;-75
2022/02/13 05:31:09;;;;;;;2.10;1.08;;;;;;;;;;5048449;28;20133;-75
2022/02/13 05:33:34;;;;;;;2.63;1.40;;;;;;;;;;5031886;28;20443;-75
2022/02/13 05:36:00;;;;;;;2.20;0.95;;;;;;;;;;5029690;28;20041;-75
2022/02/13 05:38:25;;;;;;;3.22;1.13;;;;;;;;;;5035335;28;20028;-75
2022/02/13 05:40:51;;;;;;;3.85;1.55;;;;;;;;;;5018411;28;20041;-75
2022/02/13 05:43:16;;;;;;;2.28;1.17;;;;;;;;;;5014385;28;20419;-75
2022/02/13 05:45:43;;;;;;;1.75;0.80;;;;;;;;;;5043822;28;20037;-75
2022/02/13 05:48:08;;;;;;;2.08;1.00;;;;;;;;;;5018580;28;20458;-75
2022/02/13 05:50:33;;;;;;;2.15;1.08;;;;;;;;;;5017767;28;20057;-75
2022/02/13 05:52:59;;;;;;;2.63;1.00;;;;;;;;;;5016944;28;20411;-75
2022/02/13 05:55:24;;;;;;;2.70;1.00;;;;;;;;;;5032674;28;20049;-75
2022/02/13 05:57:50;;;;;;;3.00;1.52;;;;;;;;;;5000711;28;20400;-75
2022/02/13 06:00:15;;;;;;;2.10;1.00;;;;;;;;;;5018162;28;20422;-76
2022/02/13 06:02:44;;;;;;;2.00;1.13;;;;;;;;;;5001967;28;20385;-75
2022/02/13 06:05:09;;;;;;;2.78;1.13;;;;;;;;;;5002326;28;20037;-75
2022/02/13 06:07:39;;;;;;;2.05;1.17;;;;;;;;;;5034116;28;20087;-76
2022/02/13 06:10:06;;;;;;;2.65;0.90;;;;;;;;;;5017109;28;20090;-75
2022/02/13 06:12:31;;;;;;;2.22;1.17;;;;;;;;;;5000491;28;20065;-75
2022/02/13 06:14:57;;;;;;;2.55;1.02;;;;;;;;;;5052019;28;20048;-75
2022/02/13 06:17:23;;;;;;;3.55;1.10;;;;;;;;;;5052128;28;20064;-76
2022/02/13 06:19:48;;;;;;;1.52;0.60;;;;;;;;;;5018102;28;20032;-76
2022/02/13 06:22:14;;;;;;;2.15;1.00;;;;;;;;;;5017032;28;20045;-76
2022/02/13 06:24:39;;;;;;;2.63;1.20;;;;;;;;;;5001008;28;20094;-76
2022/02/13 06:27:05;;;;;;;2.90;1.10;;;;;;;;;;4985024;28;20028;-76
2022/02/13 06:29:30;;;;;;;2.15;1.13;;;;;;;;;;5000097;28;20025;-75
2022/02/13 06:31:57;;;;;;;2.10;0.98;;;;;;;;;;5014321;28;20037;-76
2022/02/13 06:34:22;;;;;;;2.35;1.30;;;;;;;;;;4997803;28;20037;-76
2022/02/13 06:36:48;;;;;;;2.65;1.10;;;;;;;;;;5030581;28;20458;-76
2022/02/13 06:39:13;;;;;;;2.42;1.00;;;;;;;;;;5030343;28;20427;-76
2022/02/13 06:41:39;;;;;;;2.72;1.05;;;;;;;;;;5029943;28;20041;-76
2022/02/13 06:44:04;;;;;;;2.03;1.10;;;;;;;;;;4997514;28;20397;-76
2022/02/13 06:46:31;;;;;;;2.45;1.23;;;;;;;;;;4998721;28;20531;-76
2022/02/13 06:48:56;;;;;;;3.15;1.08;;;;;;;;;;5013909;28;20033;-76
2022/02/13 06:51:21;;;;;;;3.28;1.00;;;;;;;;;;5023528;28;20423;-76
2022/02/13 06:53:47;;;;;;;3.97;1.25;;;;;;;;;;5017128;28;20415;-75
2022/02/13 06:56:13;;;;;;;3.42;1.13;;;;;;;;;;5034921;28;20426;-75
2022/02/13 06:58:40;;;;;;;2.08;1.02;;;;;;;;;;5035359;28;20041;-75
2022/02/13 07:01:05;;;;;;;1.63;0.80;;;;;;;;;;5002971;28;20095;-75
2022/02/13 07:03:30;;;;;;;3.58;1.40;;;;;;;;;;5002504;28;20557;-75
2022/02/13 07:05:56;;;;;;;4.22;1.40;;;;;;;;;;5018864;28;20111;-75
2022/02/13 07:08:21;;;;;;;5.00;1.23;;;;;;;;;;5033200;28;20025;-76
2022/02/13 07:10:47;;;;;;;2.65;1.00;;;;;;;;;;5004629;28;20041;-76
2022/02/13 07:13:13;;;;;;;3.03;1.00;;;;;;;;;;5025447;28;20037;-75
2022/02/13 07:15:38;;;;;;;4.00;1.02;;;;;;;;;;5033694;28;20041;-76
2022/02/13 07:18:04;;;;;;;2.25;0.93;;;;;;;;;;5018063;28;20037;-76
2022/02/13 07:20:29;;;;;;;5.53;1.10;;;;;;;;;;5018189;28;20041;-76
2022/02/13 07:22:56;;;;;;;4.00;1.30;;;;;;;;;;5017515;28;20413;-77
2022/02/13 07:25:22;;;;;;;3.58;1.25;;;;;;;;;;5017599;28;20452;-76
2022/02/13 07:27:48;;;;;;;2.95;1.20;;;;;;;;;;5032220;28;20117;-76
2022/02/13 07:30:13;;;;;;;2.35;1.10;;;;;;;;;;5034302;28;20041;-77
2022/02/13 07:32:44;;;;;;;2.28;1.10;;;;;;;;;;5020489;28;20552;-76
2022/02/13 07:35:09;;;;;;;3.00;1.05;;;;;;;;;;5020917;28;20066;-76
2022/02/13 07:37:35;;;;;;;4.00;1.38;;;;;;;;;;5036862;28;20111;-77
2022/02/13 07:40:01;;;;;;;2.03;0.95;;;;;;;;;;5020899;28;20083;-76
2022/02/13 07:42:27;;;;;;;3.17;1.27;;;;;;;;;;5009818;28;20037;-75
2022/02/13 07:44:52;;;;;;;2.83;1.10;;;;;;;;;;5018224;28;20112;-77
2022/02/13 07:47:18;;;;;;;2.20;0.98;;;;;;;;;;5000961;28;20099;-78
2022/02/13 07:49:43;;;;;;;2.45;1.00;;;;;;;;;;5000908;28;20439;-78
2022/02/13 07:52:09;;;;;;;7.63;1.23;;;;;;;;;;5016597;28;20048;-77
2022/02/13 07:54:34;;;;;;;2.53;0.90;;;;;;;;;;5017300;28;20404;-77
2022/02/13 07:57:00;;;;;;;2.97;1.25;;;;;;;;;;5033366;28;20045;-77
2022/02/13 07:59:25;;;;;;;6.15;1.73;;;;;;;;;;5031401;28;20096;-77
2022/02/13 08:01:51;;;;;;;7.95;1.50;;;;;;;;;;5020497;28;20112;-77
2022/02/13 08:04:16;;;;;;;8.52;2.15;;;;;;;;;;5003773;28;20090;-77
2022/02/13 08:06:42;;;;;;;6.95;1.40;;;;;;;;;;5018926;28;20435;-77
2022/02/13 08:09:07;;;;;;;4.90;2.00;;;;;;;;;;5018415;28;20497;-77
2022/02/13 08:11:33;;;;;;;5.53;1.50;;;;;;;;;;5018052;28;20178;-77
2022/02/13 08:13:59;;;;;;;4.28;1.55;;;;;;;;;;5002132;28;20068;-77
2022/02/13 08:16:24;;;;;;;6.20;1.90;;;;;;;;;;5018627;28;20091;-77
2022/02/13 08:18:50;;;;;;;10.23;1.42;;;;;;;;;;5018435;28;20134;-77
2022/02/13 08:21:15;;;;;;;5.15;1.30;;;;;;;;;;5017705;28;20120;-77
2022/02/13 08:23:41;;;;;;;8.85;2.00;;;;;;;;;;5003349;28;20064;-76
2022/02/13 08:26:07;;;;;;;6.82;1.50;;;;;;;;;;5003782;28;20029;-77
2022/02/13 08:28:34;;;;;;;6.45;1.60;;;;;;;;;;5002370;28;20037;-77
2022/02/13 08:31:00;;;;;;;4.38;1.70;;;;;;;;;;5004336;28;20098;-77
2022/02/13 08:33:27;;;;;;;4.75;1.30;;;;;;;;;;4986833;28;20021;-77
2022/02/13 08:35:52;;;;;;;5.22;1.50;;;;;;;;;;5019054;28;20067;-77
2022/02/13 08:38:18;;;;;;;5.40;1.88;;;;;;;;;;5003102;28;20552;-77
2022/02/13 08:40:44;;;;;;;3.28;1.45;;;;;;;;;;5019476;28;20052;-77
2022/02/13 08:43:09;;;;;;;4.38;1.27;;;;;;;;;;5012334;28;20092;-77
2022/02/13 08:45:36;;;;;;;7.95;2.22;;;;;;;;;;5001771;28;20063;-77
2022/02/13 08:48:01;;;;;;;3.28;1.67;;;;;;;;;;5025877;28;20033;-77
2022/02/13 08:50:27;;;;;;;6.05;1.83;;;;;;;;;;5022609;28;20039;-77
2022/02/13 08:52:52;;;;;;;6.20;1.73;;;;;;;;;;5039286;28;20115;-77
2022/02/13 08:55:18;;;;;;;4.90;1.27;;;;;;;;;;5039190;28;20051;-77
2022/02/13 08:57:44;;;;;;;5.97;1.30;;;;;;;;;;5039250;28;20028;-77
2022/02/13 09:00:11;;;;;;;4.70;1.60;;;;;;;;;;5025747;28;20043;-77
2022/02/13 09:02:37;;;;;;;4.45;1.50;;;;;;;;;;5023052;28;20056;-76
2022/02/13 09:05:06;;;;;;;4.07;1.70;;;;;;;;;;5055332;28;20044;-77
2022/02/13 09:07:33;;;;;;;5.72;1.75;;;;;;;;;;5023036;28;20021;-77
2022/02/13 09:09:58;;;;;;;10.88;3.38;;;;;;;;;;5038788;28;20119;-77
2022/02/13 09:12:25;;;;;;;5.00;1.70;;;;;;;;;;5038506;28;20181;-77
2022/02/13 09:14:50;;;;;;;3.97;1.60;;;;;;;;;;5039242;28;20041;-77
2022/02/13 09:17:16;;;;;;;3.80;2.03;;;;;;;;;;5039274;28;20040;-77
2022/02/13 09:19:41;;;;;;;6.88;1.77;;;;;;;;;;5011531;28;20519;-77
2022/02/13 09:22:08;;;;;;;5.28;1.88;;;;;;;;;;5009608;28;20100;-77
2022/02/13 09:24:34;;;;;;;4.63;1.35;;;;;;;;;;4999091;28;20049;-77
2022/02/13 09:26:59;;;;;;;5.53;1.80;;;;;;;;;;5031590;28;20048;-77
2022/02/13 09:29:25;;;;;;;3.72;1.13;;;;;;;;;;5016071;28;20470;-77
2022/02/13 09:31:50;;;;;;;7.15;1.63;;;;;;;;;;5014819;28;20408;-77
2022/02/13 09:34:18;;;;;;;4.22;1.35;;;;;;;;;;5015500;28;20519;-77
2022/02/13 09:36:47;;;;;;;4.53;1.70;;;;;;;;;;4984932;28;20510;-77
2022/02/13 09:39:13;;;;;;;5.40;1.30;;;;;;;;;;5031619;28;20385;-77
2022/02/13 09:41:39;;;;;;;3.60;1.45;;;;;;;;;;5030959;28;20144;-77
2022/02/13 09:44:04;;;;;;;4.53;1.40;;;;;;;;;;5014726;28;20140;-77
2022/02/13 09:46:30;;;;;;;4.80;1.67;;;;;;;;;;5004921;28;20120;-77
2022/02/13 09:48:55;;;;;;;4.50;1.23;;;;;;;;;;5000752;28;20487;-77
2022/02/13 09:51:21;;;;;;;3.45;1.23;;;;;;;;;;4998117;28;20041;-76
2022/02/13 09:53:46;;;;;;;4.57;1.58;;;;;;;;;;4998573;28;20044;-77
2022/02/13 09:56:12;;;;;;;2.53;1.20;;;;;;;;;;4992914;28;20036;-77
2022/02/13 09:58:37;;;;;;;2.65;1.25;;;;;;;;;;5001941;28;20041;-77
2022/02/13 10:01:04;;;;;;;5.32;1.63;;;;;;;;;;5017833;28;20045;-77
2022/02/13 10:03:43;;;;;;;2.65;1.35;;;;;;;;;;5017689;28;20072;-77
2022/02/13 10:06:12;;;;;;;2.78;1.20;;;;;;;;;;5001047;28;20037;-76
2022/02/13 10:08:48;;;;;;;3.13;1.40;;;;;;;;;;5048524;28;20418;-77
2022/02/13 10:11:32;;;;;;;5.13;1.63;;;;;;;;;;5025451;28;20064;-77
2022/02/13 10:13:59;;;;;;;3.20;1.30;;;;;;;;;;5033951;28;20041;-77
2022/02/13 10:16:34;;;;;;;4.07;1.40;;;;;;;;;;5068006;28;20036;-77
2022/02/13 10:19:07;;;;;;;5.20;1.40;;;;;;;;;;5018172;28;20119;-76
2022/02/13 10:21:33;;;;;;;5.45;2.28;;;;;;;;;;5001569;28;20033;-76
2022/02/13 10:24:22;;;;;;;7.57;2.45;;;;;;;;;;5015913;28;20041;-77
2022/02/13 10:26:49;;;;;;;7.93;2.65;;;;;;;;;;5027127;28;20061;-76
2022/02/13 10:29:14;;;;;;;30.35;4.07;;;;;;;;;;5037906;28;20045;-75
2022/02/13 10:31:41;;;;;;;30.25;3.60;;;;;;;;;;5020742;28;20071;-77
2022/02/13 10:34:06;;;;;;;22.35;2.42;;;;;;;;;;5013326;28;20029;-76
2022/02/13 10:36:40;;;;;;;26.00;3.53;;;;;;;;;;5017529;28;20108;-76
2022/02/13 10:39:19;;;;;;;4.43;1.73;;;;;;;;;;5016584;28;20037;-76
2022/02/13 10:41:45;;;;;;;11.82;1.92;;;;;;;;;;5012646;28;20241;-76
2022/02/13 10:44:10;;;;;;;8.02;1.75;;;;;;;;;;4997835;28;20113;-76
2022/02/13 10:46:37;;;;;;;7.97;1.83;;;;;;;;;;4981570;28;20111;-76
2022/02/13 10:49:04;;;;;;;8.45;2.95;;;;;;;;;;5014425;28;20057;-77
2022/02/13 10:51:30;;;;;;;7.35;2.05;;;;;;;;;;4981613;28;20049;-76
2022/02/13 10:53:55;;;;;;;9.02;2.30;;;;;;;;;;4997358;28;20098;-76
2022/02/13 10:56:21;;;;;;;12.90;2.72;;;;;;;;;;5033613;28;20183;-77
2022/02/13 10:58:47;;;;;;;16.75;3.13;;;;;;;;;;5015825;28;20057;-77
2022/02/13 11:01:13;;;;;;;12.13;2.53;;;;;;;;;;5016826;28;20040;-78
2022/02/13 11:03:38;;;;;;;13.63;2.53;;;;;;;;;;5000555;28;20037;-77
2022/02/13 11:06:04;;;;;;;9.65;2.42;;;;;;;;;;5016996;28;20470;-77
2022/02/13 11:08:37;;;;;;;12.10;3.22;;;;;;;;;;5017422;28;20041;-77
2022/02/13 11:11:04;;;;;;;9.35;1.67;;;;;;;;;;5017601;28;20040;-77
2022/02/13 11:13:31;;;;;;;12.43;2.38;;;;;;;;;;4997549;28;20515;-76
2022/02/13 11:15:57;;;;;;;7.32;2.03;;;;;;;;;;4981068;28;20120;-77
2022/02/13 11:18:25;;;;;;;5.00;1.88;;;;;;;;;;4981242;28;20518;-76
2022/02/13 11:20:53;;;;;;;7.65;1.95;;;;;;;;;;4998079;28;20038;-76
2022/02/13 11:23:23;;;;;;;12.80;1.98;;;;;;;;;;4997787;28;20067;-77
2022/02/13 11:26:00;;;;;;;7.07;2.00;;;;;;;;;;4994576;28;20038;-76
2022/02/13 11:28:52;;;;;;;13.95;2.15;;;;;;;;;;5014709;28;20030;-76
2022/02/13 11:31:57;;;;;;;9.13;1.75;;;;;;;;;;5049803;28;20045;-76
2022/02/13 11:34:26;;;;;;;11.27;1.63;;;;;;;;;;5021572;28;20044;-77
2022/02/13 11:36:56;;;;;;;3.80;1.33;;;;;;;;;;5038458;28;20131;-77
2022/02/13 11:39:37;;;;;;;5.85;1.83;;;;;;;;;;5000907;28;20511;-76
2022/02/13 11:42:21;;;;;;;6.80;1.90;;;;;;;;;;5026343;28;20152;-76
2022/02/13 11:44:51;;;;;;;3.72;1.65;;;;;;;;;;5012670;28;20041;-77
2022/02/13 11:47:37;;;;;;;4.63;1.38;;;;;;;;;;4997429;28;20038;-76
2022/02/13 11:50:06;;;;;;;6.72;2.20;;;;;;;;;;4999529;28;20036;-76
2022/02/13 11:52:33;;;;;;;5.95;1.38;;;;;;;;;;5035066;28;20107;-76
2022/02/13 11:54:59;;;;;;;5.88;1.95;;;;;;;;;;5017046;28;20119;-76
2022/02/13 11:57:32;;;;;;;3.22;1.23;;;;;;;;;;5004212;28;20056;-76
2022/02/13 11:59:57;;;;;;;5.13;2.30;;;;;;;;;;5022746;28;20108;-76
2022/02/13 12:02:41;;;;;;;3.67;1.33;;;;;;;;;;5054303;28;20125;-76
2022/02/13 12:05:06;;;;;;;6.40;1.15;;;;;;;;;;5054378;28;20071;-76
2022/02/13 12:07:35;;;;;;;5.93;1.60;;;;;;;;;;5036520;28;20064;-77
2022/02/13 12:10:00;;;;;;;4.88;1.40;;;;;;;;;;5036424;28;20044;-77
2022/02/13 12:12:28;;;;;;;8.68;2.08;;;;;;;;;;5034211;28;20045;-76
2022/02/13 12:14:54;;;;;;;3.00;1.67;;;;;;;;;;5034127;28;20033;-76
2022/02/13 12:17:24;;;;;;;4.85;1.73;;;;;;;;;;5011827;28;20044;-76
2022/02/13 12:20:00;;;;;;;5.03;1.65;;;;;;;;;;5040113;28;20043;-76
2022/02/13 12:22:26;;;;;;;6.57;1.48;;;;;;;;;;5025032;28;20111;-77
2022/02/13 12:24:52;;;;;;;4.35;1.75;;;;;;;;;;5036384;28;20040;-76
2022/02/13 12:27:23;;;;;;;3.92;1.98;;;;;;;;;;5003572;28;20033;-77
2022/02/13 12:29:53;;;;;;;7.15;1.90;;;;;;;;;;5018443;28;20066;-78
2022/02/13 12:32:24;;;;;;;5.60;1.83;;;;;;;;;;4987572;28;20110;-77
2022/02/13 12:34:57;;;;;;;4.97;1.67;;;;;;;;;;5004372;28;20509;-79
2022/02/13 12:37:43;;;;;;;3.65;1.60;;;;;;;;;;5019595;28;20041;-78
2022/02/13 12:40:37;;;;;;;5.13;1.88;;;;;;;;;;5014128;28;20044;-78
2022/02/13 12:43:08;;;;;;;5.22;2.00;;;;;;;;;;5016265;28;20037;-78
2022/02/13 12:45:35;;;;;;;5.45;1.90;;;;;;;;;;5002040;28;20032;-78
2022/02/13 12:48:03;;;;;;;6.68;1.77;;;;;;;;;;5015459;28;20037;-77
2022/02/13 12:50:37;;;;;;;4.15;1.98;;;;;;;;;;4975921;28;20025;-77
2022/02/13 12:53:10;;;;;;;5.07;1.55;;;;;;;;;;5002444;28;20063;-77
2022/02/13 12:55:37;;;;;;;5.53;1.65;;;;;;;;;;4999558;28;20053;-77
2022/02/13 12:58:02;;;;;;;4.45;1.75;;;;;;;;;;5016812;28;20037;-78
2022/02/13 13:00:52;;;;;;;5.15;2.03;;;;;;;;;;5014257;28;20056;-78
2022/02/13 13:03:18;;;;;;;6.55;2.08;;;;;;;;;;5019228;28;20058;-78
2022/02/13 13:05:46;;;;;;;10.88;2.65;;;;;;;;;;5015865;28;20526;-77
2022/02/13 13:08:18;;;;;;;5.93;2.25;;;;;;;;;;4984292;28;20029;-77
2022/02/13 13:10:56;;;;;;;6.47;1.85;;;;;;;;;;5016909;28;20183;-77
2022/02/13 13:13:42;;;;;;;5.45;2.58;;;;;;;;;;5000840;28;20045;-77
2022/02/13 13:16:12;;;;;;;8.95;2.33;;;;;;;;;;5003473;28;20053;-77
2022/02/13 13:18:45;;;;;;;5.90;2.55;;;;;;;;;;5027526;28;20107;-77
2022/02/13 13:21:21;;;;;;;7.57;2.20;;;;;;;;;;5015707;28;20107;-77
2022/02/13 13:24:12;;;;;;;7.90;2.20;;;;;;;;;;5033848;28;20072;-77
2022/02/13 13:26:41;;;;;;;4.85;2.00;;;;;;;;;;5016749;28;20041;-77
2022/02/13 13:29:29;;;;;;;8.38;1.90;;;;;;;;;;5031388;28;20044;-78
2022/02/13 13:32:01;;;;;;;7.05;2.33;;;;;;;;;;5014695;28;20040;-78
2022/02/13 13:34:27;;;;;;;8.00;2.30;;;;;;;;;;5015820;28;20042;-77
2022/02/13 13:36:53;;;;;;;8.57;2.95;;;;;;;;;;4997010;28;20096;-78
2022/02/13 13:39:26;;;;;;;8.27;2.05;;;;;;;;;;5029352;28;20049;-78
2022/02/13 13:41:52;;;;;;;6.95;2.08;;;;;;;;;;5017114;28;20116;-78
2022/02/13 13:44:19;;;;;;;8.07;2.10;;;;;;;;;;5014955;28;20037;-77
2022/02/13 13:46:48;;;;;;;7.05;2.90;;;;;;;;;;4997933;28;20041;-77
2022/02/13 13:49:14;;;;;;;6.05;2.55;;;;;;;;;;5023797;28;20033;-77
2022/02/13 13:51:39;;;;;;;9.40;2.45;;;;;;;;;;5015405;28;20116;-80
2022/02/13 13:54:05;;;;;;;12.25;2.90;;;;;;;;;;4998561;28;20059;-77
2022/02/13 13:56:31;;;;;;;9.35;3.25;;;;;;;;;;5007012;28;20048;-79
2022/02/13 13:58:57;;;;;;;6.80;2.88;;;;;;;;;;4997816;28;20029;-77
2022/02/13 14:01:23;;;;;;;6.07;2.80;;;;;;;;;;5009828;28;20495;-77
2022/02/13 14:03:48;;;;;;;11.48;3.20;;;;;;;;;;4998490;28;20095;-77
2022/02/13 14:06:13;;;;;;;16.17;3.42;;;;;;;;;;4991290;28;20045;-77
2022/02/13 14:08:39;;;;;;;8.25;2.25;;;;;;;;;;5009583;28;20390;-77
2022/02/13 14:11:04;;;;;;;12.13;2.83;;;;;;;;;;5016489;28;20044;-76
2022/02/13 14:13:30;;;;;;;5.35;2.30;;;;;;;;;;5012193;28;20454;-77
2022/02/13 14:15:55;;;;;;;8.23;2.85;;;;;;;;;;5017774;28;20028;-77
2022/02/13 14:18:21;;;;;;;11.45;2.88;;;;;;;;;;5017808;28;20044;-77
2022/02/13 14:20:46;;;;;;;9.68;2.85;;;;;;;;;;5017897;28;20044;-77
2022/02/13 14:23:11;;;;;;;9.80;2.75;;;;;;;;;;5017439;28;20422;-77
2022/02/13 14:25:37;;;;;;;7.30;2.20;;;;;;;;;;5018127;28;20037;-77
2022/02/13 14:28:03;;;;;;;8.73;2.83;;;;;;;;;;5033952;28;20033;-77
2022/02/13 14:30:29;;;;;;;6.88;2.88;;;;;;;;;;5001622;28;20033;-77
2022/02/13 14:32:54;;;;;;;8.05;2.53;;;;;;;;;;5001297;28;20052;-77
2022/02/13 14:35:20;;;;;;;5.00;2.30;;;;;;;;;;5001341;28;20099;-77
2022/02/13 14:37:49;;;;;;;7.75;2.33;;;;;;;;;;5000452;28;20564;-77
2022/02/13 14:40:15;;;;;;;5.55;2.13;;;;;;;;;;5018609;28;20045;-77
2022/02/13 14:42:41;;;;;;;6.78;2.70;;;;;;;;;;5023027;28;20057;-77